Aviation Digital Data Service (ADDS)

Output produced by METARs form (1111 UTC 24 April 2017)
found at http://www.aviationweather.gov/adds/metars/
 
VNKT 241050Z 28007KT 230V330 9999 FEW020 26/14 Q1009 NOSIG
TAF VNKT 240500Z 2406/2506 15005KT 8000 FEW020 
     PROB30 
     TEMPO 2408/2412 24010KT 5000 -TSRA FEW025CB SCT030 
     BECMG 2413/2415 VRB02KT 6000 FEW020 
     BECMG 2500/2502 00000KT 3000 BR FEW010 
     BECMG 2503/2504 09003KT 5000 HZ FEW020 
     BECMG 2505/2506 12004KT 7000 FEW020